Brainerd, MN

5:23 PM CDT on August 29, 2016 (GMT -0500)
Northeast Brainerd | | Change Station

Elev 1249 ft 46.37 °N, 94.18 °W | Updated 14 seconds ago

Overcast
Overcast
79.9 °F
Feels Like 84 °F
N
0.0
Wind Variable Wind from North
Gusts 0.0 mph

Today
High -- | Low -- °F
--% Chance of Precip.
Yesterday
High -- | Low -- °F
Precip. -- in
Pressure 30.12 in
Visibility 10.0 miles
Clouds Few 3500 ft
Overcast 4400 ft
Heat Index 84 °F
Dew Point 74 °F
Humidity 82%
Rainfall 0.51 in
Snow Depth Not available.
6:33 AM 7:59 PM
Waning Crescent, 6% visible
METAR KBRD 292153Z AUTO 30006KT 10SM FEW035 OVC044 28/20 A3014 RMK AO2 SLP200 T02780200
Pressure 30.12 in
Visibility 10.0 miles
Clouds Few 3500 ft
Overcast 4400 ft
Heat Index 84 °F
Dew Point 74 °F
Humidity 82%
Rainfall 0.51 in
Snow Depth Not available.
6:33 AM 7:59 PM
Waning Crescent, 6% visible
METAR KBRD 292153Z AUTO 30006KT 10SM FEW035 OVC044 28/20 A3014 RMK AO2 SLP200 T02780200

10-Day Weather Forecast

Almanac

Astronomy

Aug. 29, 2016 Rise Set
Actual Time
Civil Twilight
Nautical Twilight
Astronomical Twilight
Moon
Length of Visible Light
Length of Day
Tomorrow will be .
, % of the Moon is Illuminated

Today's Extremes

State Highs State Lows

Community

WunderPhotos

Upload Photos

1,935,690 photos uploaded!

WunderBlog® & News

Nearby

Air Quality

  Air Quality AQ Index Pollutant
Not available.

Snow Depth

Station Depth Elevation

Earthquake Activity

City Distance Mag. Time & Date
Minimum magnitude displayed is 2.5.

Coastal Water Temperatures

Place Temperature

Stations

Nearby Weather Stations

Station Location Temp. Windchill Dew Point Humidity Wind Precip. Elev Updated Type
                   

Watches & Warnings

There are currently no watches in effect.